Time;durP1;ratioP1;P1;durP2;ratioP2;P2;SDS_P1;SDS_P2;PMS_P1;PMS_P2;Temp;Humidity;BMP_temperature;BMP_pressure;BME280_temperature;BME280_humidity;BME280_pressure;Samples;Min_cycle;Max_cycle;Signal;HPM_P1;HPM_P2
2022/07/09 00:01:46;;;;;;;1.65;0.63;;;25.50;96.50;;;;;;4874860;29;20136;-82
2022/07/09 00:04:15;;;;;;;2.40;0.65;;;25.60;96.10;;;;;;4875401;29;20048;-82
2022/07/09 00:06:42;;;;;;;1.98;0.98;;;25.60;95.20;;;;;;4884110;29;20049;-82
2022/07/09 00:09:10;;;;;;;2.75;1.00;;;25.60;94.80;;;;;;4865787;29;20080;-82
2022/07/09 00:11:41;;;;;;;5.63;1.08;;;25.60;94.90;;;;;;4876511;29;20100;-82
2022/07/09 00:14:10;;;;;;;2.30;0.70;;;25.70;94.50;;;;;;4859741;29;20037;-82
2022/07/09 00:16:38;;;;;;;1.60;0.55;;;25.70;94.20;;;;;;4876651;29;20049;-81
2022/07/09 00:19:06;;;;;;;2.72;0.70;;;25.60;94.00;;;;;;4890693;29;20548;-82
2022/07/09 00:21:35;;;;;;;2.10;0.50;;;25.60;93.90;;;;;;4875916;29;20137;-82
2022/07/09 00:24:03;;;;;;;1.05;0.30;;;25.70;93.60;;;;;;4859884;29;20049;-83
2022/07/09 00:26:31;;;;;;;1.80;0.35;;;25.80;93.40;;;;;;4890185;29;20613;-82
2022/07/09 00:28:59;;;;;;;2.17;0.45;;;25.70;93.80;;;;;;4875495;29;20585;-82
2022/07/09 00:31:28;;;;;;;1.40;0.70;;;25.60;94.90;;;;;;4874936;29;20056;-83
2022/07/09 00:33:56;;;;;;;0.63;0.40;;;25.60;96.10;;;;;;4874950;29;20572;-82
2022/07/09 00:36:24;;;;;;;1.65;0.50;;;25.50;96.70;;;;;;4874668;29;20153;-82
2022/07/09 00:38:52;;;;;;;2.15;0.60;;;25.60;96.70;;;;;;4874179;29;20055;-82
2022/07/09 00:41:20;;;;;;;2.67;0.40;;;25.60;96.70;;;;;;4889966;29;20057;-82
2022/07/09 00:43:49;;;;;;;0.45;0.32;;;25.60;96.70;;;;;;4859134;29;20139;-82
2022/07/09 00:46:17;;;;;;;3.00;0.40;;;25.40;96.70;;;;;;4874164;29;20061;-82
2022/07/09 00:48:47;;;;;;;0.57;0.30;;;25.30;96.70;;;;;;4875734;29;20048;-82
2022/07/09 00:51:17;;;;;;;1.17;0.45;;;25.40;95.80;;;;;;4875284;29;20468;-82
2022/07/09 00:53:45;;;;;;;0.70;0.30;;;25.20;95.40;;;;;;4866656;29;20092;-82
2022/07/09 00:56:13;;;;;;;2.50;0.40;;;25.00;95.50;;;;;;4876026;29;20091;-82
2022/07/09 00:58:43;;;;;;;1.38;0.30;;;24.90;95.60;;;;;;4883048;29;20143;-82
2022/07/09 01:01:10;;;;;;;0.60;0.30;;;25.00;95.60;;;;;;4873830;29;20045;-82
2022/07/09 01:03:38;;;;;;;0.20;0.20;;;25.00;95.40;;;;;;4875367;29;20080;-82
2022/07/09 01:06:08;;;;;;;1.00;0.20;;;25.00;95.10;;;;;;4874274;29;20048;-81
2022/07/09 01:08:36;;;;;;;0.43;0.30;;;24.90;95.40;;;;;;4874267;29;20167;-82
2022/07/09 01:11:05;;;;;;;0.28;0.28;;;24.80;95.80;;;;;;4869629;29;20044;-83
2022/07/09 01:13:33;;;;;;;1.05;0.32;;;24.40;96.70;;;;;;4858745;29;20056;-82
2022/07/09 01:16:01;;;;;;;0.70;0.22;;;24.20;96.70;;;;;;4867803;29;20093;-82
2022/07/09 01:18:29;;;;;;;2.65;0.45;;;24.10;96.70;;;;;;4874943;29;20056;-82
2022/07/09 01:20:59;;;;;;;0.65;0.30;;;24.20;96.70;;;;;;4873813;29;20057;-84
2022/07/09 01:23:27;;;;;;;1.73;0.35;;;24.40;96.70;;;;;;4873717;29;20060;-83
2022/07/09 01:25:56;;;;;;;0.88;0.30;;;24.40;96.70;;;;;;4889071;29;20049;-83
2022/07/09 01:28:24;;;;;;;0.73;0.20;;;24.40;96.70;;;;;;4873894;29;20057;-82
2022/07/09 01:30:52;;;;;;;1.02;0.30;;;24.40;96.70;;;;;;4875495;29;20045;-82
2022/07/09 01:33:20;;;;;;;1.48;0.30;;;24.50;96.70;;;;;;4873770;29;20049;-83
2022/07/09 01:35:48;;;;;;;2.58;0.43;;;24.50;96.70;;;;;;4874135;29;20491;-83
2022/07/09 01:38:18;;;;;;;0.35;0.20;;;24.50;96.70;;;;;;4894692;29;20104;-83
2022/07/09 01:40:46;;;;;;;2.08;0.32;;;24.30;96.70;;;;;;4873714;29;20056;-82
2022/07/09 01:43:14;;;;;;;3.20;0.57;;;24.10;96.70;;;;;;4874451;29;20096;-83
2022/07/09 01:45:42;;;;;;;2.22;0.30;;;24.10;96.70;;;;;;4888912;29;20109;-83
2022/07/09 01:48:10;;;;;;;0.65;0.28;;;24.30;96.70;;;;;;4874256;29;20105;-84
2022/07/09 01:50:38;;;;;;;1.80;0.30;;;24.30;96.70;;;;;;4864718;29;20515;-83
2022/07/09 01:53:06;;;;;;;2.13;0.32;;;24.30;96.70;;;;;;4872809;29;20053;-83
2022/07/09 01:55:36;;;;;;;0.88;0.30;;;24.20;96.70;;;;;;4873430;29;20519;-83
2022/07/09 01:58:04;;;;;;;2.13;0.50;;;24.20;96.70;;;;;;4886784;29;20076;-84
2022/07/09 02:00:33;;;;;;;0.57;0.43;;;24.20;96.70;;;;;;4857063;29;20539;-81
2022/07/09 02:03:01;;;;;;;0.70;0.20;;;24.20;96.70;;;;;;4869910;29;20585;-79
2022/07/09 02:05:29;;;;;;;1.00;0.25;;;24.20;96.70;;;;;;4871096;29;20056;-80
2022/07/09 02:07:57;;;;;;;1.25;0.30;;;24.10;96.70;;;;;;4886616;29;20087;-79
2022/07/09 02:10:25;;;;;;;1.42;0.30;;;24.10;96.70;;;;;;4869006;29;20056;-79
2022/07/09 02:12:54;;;;;;;0.82;0.30;;;24.10;96.70;;;;;;4867924;29;20053;-79
2022/07/09 02:15:23;;;;;;;1.30;0.30;;;24.00;96.70;;;;;;4869047;29;20072;-81
2022/07/09 02:17:51;;;;;;;1.10;0.50;;;24.00;96.70;;;;;;4870440;29;20120;-79
2022/07/09 02:20:19;;;;;;;1.55;0.20;;;24.00;96.70;;;;;;4855710;29;20072;-80
2022/07/09 02:22:47;;;;;;;2.33;0.43;;;24.00;96.70;;;;;;4869651;29;20519;-80
2022/07/09 02:25:15;;;;;;;1.77;0.20;;;24.00;96.70;;;;;;4858157;29;20048;-81
2022/07/09 02:27:43;;;;;;;0.52;0.40;;;24.00;96.70;;;;;;4873848;29;20113;-81
2022/07/09 02:30:13;;;;;;;1.00;0.30;;;24.00;96.70;;;;;;4854212;29;20052;-80
2022/07/09 02:32:41;;;;;;;0.68;0.43;;;23.90;96.70;;;;;;4873911;29;20068;-79
2022/07/09 02:35:09;;;;;;;1.73;0.75;;;24.00;96.70;;;;;;4869045;29;20041;-77
2022/07/09 02:37:37;;;;;;;2.70;1.00;;;23.90;96.70;;;;;;4872082;29;20068;-79
2022/07/09 02:40:06;;;;;;;1.92;1.35;;;23.70;96.70;;;;;;4870366;29;20579;-77
2022/07/09 02:42:36;;;;;;;4.70;1.92;;;23.80;96.70;;;;;;4869102;29;20053;-78
2022/07/09 02:45:04;;;;;;;3.33;1.50;;;23.70;96.70;;;;;;4868774;29;20087;-77
2022/07/09 02:47:34;;;;;;;1.08;0.65;;;23.70;96.70;;;;;;4875845;29;20053;-79
2022/07/09 02:50:02;;;;;;;2.53;0.70;;;23.80;96.70;;;;;;4868811;29;20153;-79
2022/07/09 02:52:30;;;;;;;1.48;0.85;;;23.80;96.70;;;;;;4870356;29;20049;-77
2022/07/09 02:54:57;;;;;;;3.30;1.30;;;23.80;96.70;;;;;;4866279;29;20041;-79
2022/07/09 02:57:25;;;;;;;1.70;0.90;;;23.90;96.70;;;;;;4873845;29;20590;-78
2022/07/09 02:59:54;;;;;;;1.05;0.50;;;23.70;96.70;;;;;;4865392;29;20049;-82
2022/07/09 03:02:23;;;;;;;0.75;0.32;;;23.60;96.70;;;;;;4870305;29;20886;-77
2022/07/09 03:04:53;;;;;;;1.20;0.40;;;23.50;96.70;;;;;;4872252;29;20049;-79
2022/07/09 03:07:20;;;;;;;1.00;0.30;;;23.50;96.70;;;;;;4885754;29;20079;-78
2022/07/09 03:09:48;;;;;;;0.85;0.30;;;23.50;96.70;;;;;;4876736;29;20108;-78
2022/07/09 03:12:16;;;;;;;0.77;0.30;;;23.50;96.70;;;;;;4869392;29;20101;-79
2022/07/09 03:14:44;;;;;;;1.17;0.20;;;23.60;96.70;;;;;;4874746;29;20420;-78
2022/07/09 03:17:12;;;;;;;0.20;0.20;;;23.40;96.70;;;;;;4869990;29;20048;-78
2022/07/09 03:19:39;;;;;;;3.40;0.32;;;23.40;96.70;;;;;;4869839;29;20048;-76
2022/07/09 03:22:09;;;;;;;0.20;0.20;;;23.20;96.70;;;;;;4869526;29;20052;-78
2022/07/09 03:24:36;;;;;;;0.60;0.30;;;23.20;96.70;;;;;;4872740;29;20053;-78
2022/07/09 03:27:05;;;;;;;0.30;0.30;;;23.20;96.70;;;;;;4874167;29;20053;-78
2022/07/09 03:29:32;;;;;;;2.58;0.30;;;23.20;96.70;;;;;;4856912;29;20131;-78
2022/07/09 03:32:00;;;;;;;1.63;0.40;;;23.10;96.70;;;;;;4872474;29;20063;-77
2022/07/09 03:34:28;;;;;;;0.93;0.10;;;23.10;96.70;;;;;;4872123;29;20045;-78
2022/07/09 03:36:56;;;;;;;0.80;0.25;;;23.10;96.70;;;;;;4872641;29;20148;-78
2022/07/09 03:39:26;;;;;;;1.45;0.32;;;23.10;96.70;;;;;;4872755;29;20056;-78
2022/07/09 03:41:53;;;;;;;0.40;0.20;;;23.10;96.70;;;;;;4888514;29;20061;-78
2022/07/09 03:44:21;;;;;;;0.40;0.20;;;23.10;96.70;;;;;;4872414;29;20056;-78
2022/07/09 03:46:49;;;;;;;2.38;0.40;;;23.10;96.70;;;;;;4871854;29;20435;-78
2022/07/09 03:49:17;;;;;;;0.25;0.25;;;23.00;96.70;;;;;;4873500;29;20047;-78
2022/07/09 03:51:50;;;;;;;1.15;0.30;;;23.00;96.70;;;;;;4871789;29;20108;-77
2022/07/09 03:54:40;;;;;;;0.65;0.20;;;23.00;96.70;;;;;;4872486;29;20131;-79
2022/07/09 03:57:07;;;;;;;0.30;0.20;;;23.00;96.70;;;;;;4886535;29;20097;-79
2022/07/09 03:59:35;;;;;;;2.20;0.20;;;22.90;96.70;;;;;;4872083;29;20048;-79
2022/07/09 04:02:05;;;;;;;1.83;0.47;;;22.70;96.70;;;;;;4871023;29;20049;-79
2022/07/09 04:04:39;;;;;;;2.08;0.40;;;22.70;96.70;;;;;;4873371;29;20041;-79
2022/07/09 04:07:07;;;;;;;2.53;0.40;;;22.70;96.70;;;;;;4857341;29;20041;-78
2022/07/09 04:09:35;;;;;;;0.88;0.30;;;22.70;96.70;;;;;;4875947;29;20052;-79
2022/07/09 04:12:05;;;;;;;0.30;0.20;;;22.70;96.70;;;;;;4871528;29;20049;-79
2022/07/09 04:14:33;;;;;;;1.35;0.20;;;22.70;96.70;;;;;;4872027;29;20128;-79
2022/07/09 04:17:01;;;;;;;1.40;0.20;;;22.80;96.70;;;;;;4855638;29;20053;-78
2022/07/09 04:19:29;;;;;;;1.00;0.30;;;22.90;96.70;;;;;;4887133;29;20052;-79
2022/07/09 04:21:56;;;;;;;1.00;0.60;;;22.90;96.70;;;;;;4870904;29;20507;-79
2022/07/09 04:24:24;;;;;;;3.35;0.40;;;22.90;96.70;;;;;;4873094;29;20559;-79
2022/07/09 04:26:52;;;;;;;0.90;0.30;;;22.90;96.70;;;;;;4867970;29;20049;-79
2022/07/09 04:29:22;;;;;;;1.15;0.32;;;22.70;96.70;;;;;;4872348;29;20056;-77
2022/07/09 04:31:49;;;;;;;1.50;0.70;;;22.70;96.70;;;;;;4870199;29;20128;-79
2022/07/09 04:34:17;;;;;;;1.85;0.50;;;22.70;96.70;;;;;;4872281;29;20149;-78
2022/07/09 04:36:46;;;;;;;1.63;0.82;;;22.80;96.70;;;;;;4869630;29;20148;-79
2022/07/09 04:39:13;;;;;;;1.05;0.50;;;22.70;96.70;;;;;;4886765;29;20693;-78
2022/07/09 04:41:42;;;;;;;1.38;0.80;;;22.80;96.70;;;;;;4855502;29;20053;-79
2022/07/09 04:44:12;;;;;;;2.58;0.77;;;22.60;96.70;;;;;;4871912;29;20049;-79
2022/07/09 04:46:41;;;;;;;2.38;0.90;;;22.70;96.70;;;;;;4871839;29;20085;-78
2022/07/09 04:49:09;;;;;;;2.85;0.80;;;22.80;96.70;;;;;;4875231;29;20053;-78
2022/07/09 04:51:37;;;;;;;3.75;0.90;;;22.90;96.70;;;;;;4871372;29;20069;-79
2022/07/09 04:54:05;;;;;;;1.55;0.77;;;22.90;96.70;;;;;;4855095;29;20101;-79
2022/07/09 04:56:33;;;;;;;1.63;0.50;;;22.90;96.70;;;;;;4883282;29;20056;-78
2022/07/09 04:59:02;;;;;;;5.05;0.90;;;23.00;96.70;;;;;;4870576;29;20556;-78
2022/07/09 05:01:30;;;;;;;6.32;0.80;;;23.00;96.70;;;;;;4855616;29;20044;-79
2022/07/09 05:04:01;;;;;;;2.65;0.82;;;23.00;96.70;;;;;;4889295;29;21598;-78
2022/07/09 05:06:29;;;;;;;5.07;0.73;;;22.90;96.70;;;;;;4874130;29;20041;-83
2022/07/09 05:08:57;;;;;;;3.28;0.82;;;22.90;96.70;;;;;;4855747;29;20105;-78
2022/07/09 05:11:25;;;;;;;2.58;0.70;;;22.70;96.70;;;;;;4886173;29;20049;-75
2022/07/09 05:13:53;;;;;;;0.85;0.50;;;22.60;96.70;;;;;;4870423;29;20041;-79
2022/07/09 05:16:21;;;;;;;1.20;0.63;;;22.80;96.70;;;;;;4866782;29;20579;-78
2022/07/09 05:18:49;;;;;;;1.90;0.65;;;22.90;96.70;;;;;;4869567;29;20042;-78
2022/07/09 05:21:18;;;;;;;0.50;0.38;;;22.90;96.70;;;;;;4853559;29;20062;-77
2022/07/09 05:23:48;;;;;;;2.22;0.65;;;23.00;96.70;;;;;;4874827;29;20057;-78
2022/07/09 05:26:16;;;;;;;2.95;1.10;;;23.10;96.70;;;;;;4864579;29;20065;-79
2022/07/09 05:28:44;;;;;;;5.03;1.30;;;23.20;96.70;;;;;;4883496;29;20053;-78
2022/07/09 05:31:12;;;;;;;3.60;1.45;;;23.20;96.70;;;;;;4869118;29;20045;-77
2022/07/09 05:34:00;;;;;;;3.10;1.25;;;23.30;96.70;;;;;;4869746;29;20316;-77
2022/07/09 05:36:30;;;;;;;2.08;0.57;;;23.50;96.70;;;;;;4870797;29;20056;-77
2022/07/09 05:39:01;;;;;;;2.45;1.23;;;23.60;96.70;;;;;;4868129;29;20515;-79
2022/07/09 05:41:29;;;;;;;2.20;0.85;;;23.60;96.70;;;;;;4870725;29;20334;-80
2022/07/09 05:43:57;;;;;;;3.28;0.80;;;23.70;96.70;;;;;;4871765;29;20106;-78
2022/07/09 05:46:25;;;;;;;3.33;0.88;;;23.60;96.70;;;;;;4866940;29;20057;-80
2022/07/09 05:48:53;;;;;;;2.00;0.77;;;23.40;96.70;;;;;;4851218;29;20056;-77
2022/07/09 05:51:22;;;;;;;1.42;0.70;;;23.50;96.70;;;;;;4869424;29;20125;-79
2022/07/09 05:53:51;;;;;;;1.50;0.45;;;23.60;96.70;;;;;;4869454;29;20599;-77
2022/07/09 05:56:19;;;;;;;4.18;0.70;;;23.70;96.70;;;;;;4869465;29;20139;-78
2022/07/09 05:58:47;;;;;;;2.63;0.85;;;23.80;96.70;;;;;;4865913;29;20148;-77
2022/07/09 06:01:15;;;;;;;2.53;0.63;;;23.70;96.70;;;;;;4877976;29;20045;-78
2022/07/09 06:03:43;;;;;;;2.42;0.57;;;23.70;96.70;;;;;;4884200;29;20108;-78
2022/07/09 06:06:11;;;;;;;1.80;0.60;;;23.90;96.70;;;;;;4869694;29;20464;-84
2022/07/09 06:08:39;;;;;;;2.20;0.65;;;24.00;96.70;;;;;;4887935;29;20049;-84
2022/07/09 06:11:08;;;;;;;2.33;0.60;;;24.10;96.70;;;;;;4874477;29;20045;-85
2022/07/09 06:13:36;;;;;;;1.60;0.73;;;24.10;96.70;;;;;;4874459;29;20056;-83
2022/07/09 06:16:06;;;;;;;10.82;7.05;;;24.10;96.70;;;;;;4873054;29;20045;-85
2022/07/09 06:18:33;;;;;;;3.08;0.75;;;24.20;96.70;;;;;;4874422;29;20045;-85
2022/07/09 06:21:02;;;;;;;7.68;0.93;;;24.10;96.70;;;;;;4872953;29;20405;-85
2022/07/09 06:23:30;;;;;;;2.88;0.52;;;24.20;96.70;;;;;;4858513;29;20056;-85
2022/07/09 06:25:58;;;;;;;3.38;0.40;;;24.10;96.70;;;;;;4853537;29;20580;-84
2022/07/09 06:28:27;;;;;;;7.78;0.60;;;24.10;96.70;;;;;;4886794;29;20571;-81
2022/07/09 06:30:55;;;;;;;3.25;0.47;;;24.20;96.70;;;;;;4873538;29;20045;-84
2022/07/09 06:33:23;;;;;;;3.05;0.50;;;24.30;96.70;;;;;;4874736;29;20056;-83
2022/07/09 06:35:51;;;;;;;1.38;0.30;;;24.30;96.70;;;;;;4872418;29;20072;-84
2022/07/09 06:38:19;;;;;;;2.88;0.57;;;24.50;96.70;;;;;;4871523;29;20052;-80
2022/07/09 06:40:47;;;;;;;1.92;0.63;;;24.60;96.70;;;;;;4864225;29;20064;-81
2022/07/09 06:43:15;;;;;;;3.10;0.60;;;24.60;96.70;;;;;;4866467;29;20077;-81
2022/07/09 06:45:47;;;;;;;1.25;0.50;;;24.60;96.70;;;;;;4862318;29;20581;-81
2022/07/09 06:48:15;;;;;;;2.72;0.60;;;24.70;96.70;;;;;;4869453;29;20540;-80
2022/07/09 06:50:43;;;;;;;3.55;0.70;;;24.70;96.70;;;;;;4865136;29;20139;-86
2022/07/09 06:53:11;;;;;;;2.80;0.60;;;24.90;96.70;;;;;;4867209;29;20041;-81
2022/07/09 06:55:39;;;;;;;2.85;0.65;;;24.90;96.70;;;;;;4886848;29;20045;-80
2022/07/09 06:58:07;;;;;;;2.95;0.40;;;25.00;96.70;;;;;;4884582;29;20694;-82
2022/07/09 07:00:35;;;;;;;1.45;0.60;;;25.20;96.70;;;;;;4875742;29;20136;-83
2022/07/09 07:03:05;;;;;;;1.50;0.38;;;25.20;96.70;;;;;;4870613;29;20125;-83
2022/07/09 07:05:33;;;;;;;1.02;0.50;;;25.20;96.70;;;;;;4881518;29;20139;-85
2022/07/09 07:08:01;;;;;;;9.43;0.95;;;25.40;96.70;;;;;;4876664;29;20071;-85
2022/07/09 07:10:29;;;;;;;2.28;0.63;;;25.30;96.70;;;;;;4873333;29;20048;-85
2022/07/09 07:12:57;;;;;;;2.95;0.43;;;25.40;96.70;;;;;;4877644;29;20081;-84
2022/07/09 07:15:25;;;;;;;4.18;1.63;;;25.50;96.70;;;;;;4877299;29;20408;-84
2022/07/09 07:17:53;;;;;;;7.03;1.67;;;25.60;96.70;;;;;;4891646;29;20544;-85
2022/07/09 07:20:26;;;;;;;3.67;0.80;;;25.60;96.70;;;;;;4876305;29;20053;-87
2022/07/09 07:22:54;;;;;;;2.17;0.80;;;25.60;96.70;;;;;;4860470;29;20053;-84
2022/07/09 07:25:22;;;;;;;6.45;0.70;;;25.60;96.30;;;;;;4868386;29;20059;-85
2022/07/09 07:27:50;;;;;;;2.55;0.57;;;25.70;96.60;;;;;;4860804;29;20061;-84
2022/07/09 07:30:18;;;;;;;3.47;0.40;;;25.60;96.70;;;;;;4871042;29;20037;-82
2022/07/09 07:32:46;;;;;;;3.80;0.70;;;25.60;96.70;;;;;;4874969;29;20072;-81
2022/07/09 07:35:14;;;;;;;1.35;0.40;;;25.70;96.70;;;;;;4874571;29;20045;-82
2022/07/09 07:37:43;;;;;;;1.60;0.40;;;25.80;96.70;;;;;;4875439;29;20056;-83
2022/07/09 07:40:12;;;;;;;1.02;0.30;;;25.80;96.70;;;;;;4867899;29;20053;-85
2022/07/09 07:42:40;;;;;;;1.23;0.40;;;25.90;96.70;;;;;;4876215;29;20048;-81
2022/07/09 07:45:09;;;;;;;1.63;0.60;;;26.00;96.70;;;;;;4890548;29;20404;-82
2022/07/09 07:47:37;;;;;;;1.05;0.32;;;26.00;96.70;;;;;;4876662;29;20056;-83
2022/07/09 07:50:07;;;;;;;1.00;0.40;;;26.00;96.70;;;;;;4875532;29;20041;-83
2022/07/09 07:52:35;;;;;;;2.78;0.30;;;26.10;96.70;;;;;;4859274;29;20044;-82
2022/07/09 07:55:05;;;;;;;1.27;0.40;;;26.20;96.70;;;;;;4860225;29;20045;-82
2022/07/09 07:57:33;;;;;;;0.85;0.45;;;26.20;96.70;;;;;;4877154;29;20045;-83
2022/07/09 08:00:02;;;;;;;2.00;0.47;;;26.30;96.70;;;;;;4872761;29;20113;-82
2022/07/09 08:02:38;;;;;;;1.45;0.38;;;26.40;96.70;;;;;;4889150;29;20428;-82
2022/07/09 08:05:07;;;;;;;2.85;0.57;;;26.50;96.70;;;;;;4876293;29;20048;-81
2022/07/09 08:07:36;;;;;;;4.32;0.63;;;26.60;96.70;;;;;;4879422;29;20045;-82
2022/07/09 08:10:06;;;;;;;0.85;0.30;;;26.70;96.70;;;;;;4874047;29;20500;-82
2022/07/09 08:12:35;;;;;;;0.75;0.47;;;26.70;96.70;;;;;;4872545;29;20978;-81
2022/07/09 08:15:03;;;;;;;1.13;0.35;;;26.90;95.80;;;;;;4875065;29;20519;-84
2022/07/09 08:17:31;;;;;;;2.03;0.47;;;26.90;95.10;;;;;;4877750;29;20044;-83
2022/07/09 08:19:59;;;;;;;2.38;0.47;;;26.90;95.20;;;;;;4874583;29;21328;-80
2022/07/09 08:22:27;;;;;;;2.92;0.60;;;26.90;94.80;;;;;;4882489;29;20512;-85
2022/07/09 08:24:55;;;;;;;1.60;0.35;;;26.90;95.20;;;;;;4875577;29;20068;-84
2022/07/09 08:27:25;;;;;;;2.53;0.52;;;27.10;94.40;;;;;;4874421;29;20053;-80
2022/07/09 08:29:53;;;;;;;2.42;0.70;;;27.00;93.50;;;;;;4872649;29;20093;-81
2022/07/09 08:32:20;;;;;;;2.20;0.60;;;27.10;93.80;;;;;;4856677;29;20742;-83
2022/07/09 08:34:48;;;;;;;1.30;0.60;;;27.10;93.50;;;;;;4869029;29;20045;-82
2022/07/09 08:37:16;;;;;;;1.77;0.52;;;27.20;92.90;;;;;;4873825;29;20073;-81
2022/07/09 08:39:44;;;;;;;1.17;0.47;;;27.30;92.90;;;;;;4874621;29;20108;-80
2022/07/09 08:42:12;;;;;;;1.90;0.45;;;27.20;92.50;;;;;;4871618;29;20140;-82
2022/07/09 08:44:47;;;;;;;1.77;0.40;;;27.30;92.00;;;;;;4854862;29;20084;-82
2022/07/09 08:47:16;;;;;;;1.92;0.40;;;27.30;92.80;;;;;;4873209;29;20148;-81
2022/07/09 08:49:48;;;;;;;0.85;0.32;;;27.40;92.50;;;;;;4881235;29;20049;-81
2022/07/09 08:52:17;;;;;;;2.83;0.30;;;27.60;89.90;;;;;;4872524;29;20069;-81
2022/07/09 08:54:47;;;;;;;0.93;0.30;;;27.70;89.90;;;;;;4874644;29;20045;-81
2022/07/09 08:57:16;;;;;;;2.03;0.30;;;27.80;89.70;;;;;;4873508;29;20052;-82
2022/07/09 08:59:46;;;;;;;1.60;0.50;;;27.90;89.90;;;;;;4882171;29;20603;-82
2022/07/09 09:02:14;;;;;;;2.25;0.80;;;27.90;89.10;;;;;;4873118;29;20057;-82
2022/07/09 09:04:43;;;;;;;1.80;0.60;;;28.10;88.90;;;;;;4874223;29;20567;-83
2022/07/09 09:07:15;;;;;;;2.97;0.57;;;28.20;88.80;;;;;;4884495;29;20045;-80
2022/07/09 09:09:45;;;;;;;0.75;0.40;;;28.20;88.20;;;;;;4859680;29;20251;-81
2022/07/09 09:12:14;;;;;;;1.73;0.45;;;28.40;88.00;;;;;;4872422;29;20074;-83
2022/07/09 09:14:50;;;;;;;1.98;0.40;;;28.20;87.80;;;;;;4876605;29;20049;-82
2022/07/09 09:17:18;;;;;;;2.45;0.40;;;28.10;88.20;;;;;;4874459;29;20060;-83
2022/07/09 09:19:47;;;;;;;1.63;0.50;;;28.30;88.10;;;;;;4877759;29;20117;-84
2022/07/09 09:22:16;;;;;;;1.10;0.40;;;28.40;88.00;;;;;;4882047;29;20063;-81
2022/07/09 09:24:49;;;;;;;1.83;0.65;;;28.40;87.80;;;;;;4876707;29;20143;-83
2022/07/09 09:27:18;;;;;;;1.45;0.40;;;28.30;87.30;;;;;;4891286;29;20351;-82
2022/07/09 09:29:51;;;;;;;4.25;0.32;;;28.50;87.70;;;;;;4875298;29;20053;-82
2022/07/09 09:32:22;;;;;;;2.10;0.45;;;28.50;87.40;;;;;;4872566;29;20051;-81
2022/07/09 09:34:52;;;;;;;2.58;0.50;;;28.40;86.90;;;;;;4870873;29;20059;-81
2022/07/09 09:37:29;;;;;;;3.13;0.60;;;28.70;86.90;;;;;;4856881;29;20072;-84
2022/07/09 09:39:57;;;;;;;1.15;0.50;;;28.80;86.00;;;;;;4871851;29;20045;-78
2022/07/09 09:42:27;;;;;;;1.55;0.50;;;28.80;86.60;;;;;;4855271;29;20052;-81
2022/07/09 09:45:00;;;;;;;0.68;0.30;;;28.80;86.60;;;;;;4884769;29;20072;-80
2022/07/09 09:47:28;;;;;;;1.33;0.35;;;29.00;86.60;;;;;;4867960;29;20052;-81
2022/07/09 09:50:00;;;;;;;1.73;0.40;;;29.00;85.90;;;;;;4871852;29;20053;-82
2022/07/09 09:52:29;;;;;;;1.85;0.70;;;29.10;85.40;;;;;;4872076;29;20128;-85
2022/07/09 09:55:00;;;;;;;1.58;0.40;;;29.20;85.10;;;;;;4873554;29;20121;-86
2022/07/09 09:57:28;;;;;;;1.60;0.30;;;29.10;85.60;;;;;;4870211;29;20093;-85
2022/07/09 09:59:59;;;;;;;1.23;0.40;;;29.10;85.40;;;;;;4873808;29;20144;-87
2022/07/09 10:02:28;;;;;;;1.85;0.88;;;29.10;85.40;;;;;;4859818;29;20049;-86
2022/07/09 10:04:57;;;;;;;1.80;0.50;;;29.40;84.50;;;;;;4874113;29;20052;-86
2022/07/09 10:07:26;;;;;;;3.58;0.73;;;29.50;83.70;;;;;;4874331;29;20052;-87
2022/07/09 10:09:57;;;;;;;2.28;0.50;;;29.70;83.90;;;;;;4868374;29;20059;-86
2022/07/09 10:12:29;;;;;;;1.30;0.40;;;29.80;82.70;;;;;;4873962;29;20073;-87
2022/07/09 10:14:59;;;;;;;1.95;0.55;;;29.80;83.40;;;;;;4868783;29;20052;-87
2022/07/09 10:17:38;;;;;;;1.05;0.40;;;29.80;83.10;;;;;;4885563;29;20045;-86
2022/07/09 10:20:10;;;;;;;5.25;2.05;;;29.80;82.40;;;;;;4888838;29;20087;-87
2022/07/09 10:22:40;;;;;;;2.72;0.50;;;30.00;83.10;;;;;;4871478;29;20061;-79
2022/07/09 10:25:10;;;;;;;1.90;0.50;;;30.20;82.80;;;;;;4870970;29;20049;-81
2022/07/09 10:27:43;;;;;;;2.25;0.73;;;30.30;82.90;;;;;;4870118;29;20045;-81
2022/07/09 10:30:26;;;;;;;2.50;0.68;;;30.40;82.60;;;;;;4869590;29;20067;-79
2022/07/09 10:33:05;;;;;;;1.42;0.40;;;30.40;82.00;;;;;;4882982;29;20112;-79
2022/07/09 10:35:42;;;;;;;1.27;0.28;;;30.60;82.20;;;;;;4870217;29;20045;-79
2022/07/09 10:38:10;;;;;;;;;;;30.80;81.70;;;;;;4868702;29;20049;-78
2022/07/09 10:40:40;;;;;;;2.15;0.40;;;30.70;81.70;;;;;;4869490;29;19931;-80
2022/07/09 10:43:09;;;;;;;1.67;0.50;;;30.20;81.60;;;;;;4863508;29;20063;-79
2022/07/09 10:45:40;;;;;;;1.40;0.40;;;30.10;82.30;;;;;;4870155;29;20065;-80
2022/07/09 10:48:11;;;;;;;0.75;0.40;;;30.30;82.40;;;;;;4870701;29;20045;-80
2022/07/09 10:50:41;;;;;;;0.88;0.50;;;30.30;82.60;;;;;;4867297;29;20080;-81
2022/07/09 10:53:13;;;;;;;0.90;0.50;;;30.40;82.80;;;;;;4871807;29;20809;-82
2022/07/09 10:55:44;;;;;;;1.98;0.35;;;30.30;82.20;;;;;;4883474;29;20567;-78
2022/07/09 10:58:20;;;;;;;1.85;0.35;;;30.20;81.70;;;;;;4865278;29;20059;-78
2022/07/09 11:00:57;;;;;;;1.73;0.45;;;30.60;81.40;;;;;;4867002;29;20053;-78
2022/07/09 11:03:27;;;;;;;1.48;0.43;;;30.80;81.80;;;;;;4870403;29;20053;-78
2022/07/09 11:05:56;;;;;;;1.13;0.50;;;30.90;81.00;;;;;;4867694;29;20053;-78
2022/07/09 11:08:25;;;;;;;0.80;0.50;;;31.10;81.40;;;;;;4868903;29;20128;-77
2022/07/09 11:10:53;;;;;;;3.80;0.47;;;31.50;81.10;;;;;;4864424;29;20128;-78
2022/07/09 11:13:24;;;;;;;0.90;0.40;;;31.50;80.90;;;;;;4869776;29;20045;-78
2022/07/09 11:16:02;;;;;;;2.88;0.50;;;31.50;80.50;;;;;;4880452;29;20509;-83
2022/07/09 11:18:33;;;;;;;1.13;0.40;;;31.40;80.20;;;;;;4877720;29;20116;-83
2022/07/09 11:21:03;;;;;;;1.05;0.50;;;31.50;80.50;;;;;;4885120;29;20512;-83
2022/07/09 11:23:32;;;;;;;2.08;0.47;;;31.80;80.80;;;;;;4852979;29;20061;-78
2022/07/09 11:26:01;;;;;;;1.38;0.40;;;31.90;80.10;;;;;;4861131;29;20392;-81
2022/07/09 11:28:29;;;;;;;3.65;0.35;;;31.90;79.60;;;;;;4869152;29;20480;-80
2022/07/09 11:31:01;;;;;;;0.98;0.52;;;31.90;79.90;;;;;;4868701;29;20105;-80
2022/07/09 11:34:10;;;;;;;0.82;0.50;;;31.90;79.00;;;;;;4868265;29;20059;-81
2022/07/09 11:36:19;;;;;;;2.88;0.40;;;31.90;78.70;;;;;;4870362;29;20057;-82
2022/07/09 11:38:49;;;;;;;1.88;0.75;;;32.00;80.00;;;;;;4869300;29;20061;-81
2022/07/09 11:41:17;;;;;;;1.48;0.52;;;32.20;79.80;;;;;;4870371;29;20088;-87
2022/07/09 11:43:47;;;;;;;2.13;1.50;;;32.40;79.30;;;;;;4873427;29;20052;-87
2022/07/09 11:46:20;;;;;;;0.60;0.50;;;32.50;78.90;;;;;;4875438;29;20105;-87
2022/07/09 11:48:52;;;;;;;3.83;0.70;;;32.40;79.00;;;;;;4884532;29;20508;-86
2022/07/09 11:51:28;;;;;;;1.67;0.63;;;32.60;79.60;;;;;;4880702;29;20092;-87
2022/07/09 11:53:56;;;;;;;;;;;32.30;78.40;;;;;;4876722;29;20049;-88
2022/07/09 11:56:25;;;;;;;0.85;0.50;;;32.30;78.40;;;;;;4873135;29;19928;-82
2022/07/09 11:58:54;;;;;;;2.05;0.45;;;32.30;78.80;;;;;;4889011;29;20048;-83
2022/07/09 12:01:26;;;;;;;1.98;0.70;;;32.50;78.70;;;;;;4874500;29;20542;-83
2022/07/09 12:03:56;;;;;;;4.53;0.50;;;32.50;78.20;;;;;;4875300;29;20928;-82
2022/07/09 12:06:25;;;;;;;0.82;0.60;;;32.70;79.30;;;;;;4874101;29;20720;-83
2022/07/09 12:08:59;;;;;;;0.88;0.50;;;32.90;78.00;;;;;;4874615;29;20131;-81
2022/07/09 12:11:30;;;;;;;2.95;0.60;;;32.50;78.50;;;;;;4871305;29;20095;-84
2022/07/09 12:13:59;;;;;;;1.65;0.47;;;32.60;78.50;;;;;;4874305;29;20049;-83
2022/07/09 12:16:29;;;;;;;1.05;0.60;;;32.80;78.30;;;;;;4873831;29;20160;-81
2022/07/09 12:18:58;;;;;;;5.15;0.60;;;32.90;78.00;;;;;;4856033;29;20164;-85
2022/07/09 12:21:26;;;;;;;0.73;0.50;;;33.00;78.20;;;;;;4873043;29;20053;-84
2022/07/09 12:23:56;;;;;;;3.55;0.60;;;32.80;77.10;;;;;;4874053;29;20571;-87
2022/07/09 12:26:24;;;;;;;1.08;0.60;;;32.80;78.10;;;;;;4870178;29;20141;-82
2022/07/09 12:28:53;;;;;;;0.60;0.43;;;32.70;77.70;;;;;;4886292;29;20060;-85
2022/07/09 12:31:25;;;;;;;4.65;0.60;;;32.60;77.90;;;;;;4874500;29;20143;-84
2022/07/09 12:33:55;;;;;;;1.23;0.70;;;32.80;78.40;;;;;;4888994;29;20045;-85
2022/07/09 12:36:23;;;;;;;3.35;0.75;;;32.80;78.60;;;;;;4868003;29;20105;-82
2022/07/09 12:39:12;;;;;;;2.60;0.85;;;32.80;79.10;;;;;;4871026;29;20140;-80
2022/07/09 12:41:40;;;;;;;1.77;0.40;;;32.70;79.40;;;;;;4870518;29;20588;-80
2022/07/09 12:44:09;;;;;;;0.63;0.40;;;32.40;80.50;;;;;;4872864;29;20540;-80
2022/07/09 12:46:37;;;;;;;2.20;0.82;;;32.40;80.10;;;;;;4869925;29;20053;-82
2022/07/09 12:49:07;;;;;;;1.17;0.43;;;32.80;79.40;;;;;;4871036;29;20053;-83
2022/07/09 12:51:35;;;;;;;1.77;0.50;;;33.10;79.10;;;;;;4870948;29;20045;-81
2022/07/09 12:54:03;;;;;;;1.05;0.43;;;33.20;79.10;;;;;;4872506;29;20109;-83
2022/07/09 12:56:31;;;;;;;1.77;0.60;;;32.90;78.20;;;;;;4854575;29;20053;-81
2022/07/09 12:59:19;;;;;;;0.95;0.73;;;32.80;78.90;;;;;;4858451;29;20077;-81